Time;durP1;ratioP1;P1;durP2;ratioP2;P2;SDS_P1;SDS_P2;PMS_P1;PMS_P2;Temp;Humidity;BMP_temperature;BMP_pressure;BME280_temperature;BME280_humidity;BME280_pressure;Samples;Min_cycle;Max_cycle;Signal;HPM_P1;HPM_P2
2021/03/15 00:00:12;;;;;;;4.60;3.07;;;;;;;;;;5012463;28;20429;-69
2021/03/15 00:02:40;;;;;;;4.50;3.57;;;;;;;;;;5011368;28;20455;-68
2021/03/15 00:05:07;;;;;;;6.83;3.63;;;;;;;;;;5013236;28;20396;-68
2021/03/15 00:07:33;;;;;;;4.50;3.20;;;;;;;;;;5012471;28;20850;-68
2021/03/15 00:09:59;;;;;;;4.83;3.17;;;;;;;;;;5012063;28;20429;-69
2021/03/15 00:12:25;;;;;;;4.90;3.47;;;;;;;;;;5012500;28;20824;-69
2021/03/15 00:14:51;;;;;;;3.40;2.80;;;;;;;;;;5013451;28;20408;-68
2021/03/15 00:17:17;;;;;;;5.57;4.03;;;;;;;;;;5011436;28;20441;-68
2021/03/15 00:19:43;;;;;;;4.20;3.57;;;;;;;;;;5011598;28;20414;-69
2021/03/15 00:22:09;;;;;;;3.93;3.50;;;;;;;;;;5011916;28;20409;-70
2021/03/15 00:24:35;;;;;;;6.00;3.20;;;;;;;;;;5011235;28;20831;-69
2021/03/15 00:27:01;;;;;;;3.80;3.00;;;;;;;;;;5013405;28;20765;-69
2021/03/15 00:29:27;;;;;;;4.77;3.63;;;;;;;;;;5012468;28;20463;-70
2021/03/15 00:31:53;;;;;;;4.87;3.80;;;;;;;;;;5013313;28;20452;-69
2021/03/15 00:34:19;;;;;;;4.73;3.33;;;;;;;;;;5012585;28;20985;-69
2021/03/15 00:36:45;;;;;;;4.43;3.17;;;;;;;;;;5013173;28;20846;-69
2021/03/15 00:39:12;;;;;;;5.60;3.90;;;;;;;;;;5012667;28;20434;-69
2021/03/15 00:41:38;;;;;;;4.20;3.20;;;;;;;;;;5011188;28;20502;-68
2021/03/15 00:44:05;;;;;;;4.30;3.50;;;;;;;;;;5012464;28;20532;-69
2021/03/15 00:46:31;;;;;;;5.53;3.57;;;;;;;;;;5013417;28;20408;-68
2021/03/15 00:48:57;;;;;;;5.03;3.50;;;;;;;;;;5012441;28;20464;-69
2021/03/15 00:51:23;;;;;;;4.50;3.33;;;;;;;;;;5012945;28;20433;-69
2021/03/15 00:53:49;;;;;;;5.50;3.70;;;;;;;;;;5012131;28;20432;-69
2021/03/15 00:56:15;;;;;;;5.13;4.30;;;;;;;;;;5012870;28;20405;-69
2021/03/15 00:58:41;;;;;;;4.00;3.57;;;;;;;;;;5012179;28;20863;-69
2021/03/15 01:01:08;;;;;;;5.63;3.53;;;;;;;;;;5012821;28;20436;-69
2021/03/15 01:03:34;;;;;;;12.17;4.40;;;;;;;;;;5010788;28;20459;-69
2021/03/15 01:06:00;;;;;;;5.17;4.13;;;;;;;;;;5013167;28;20401;-70
2021/03/15 01:08:26;;;;;;;4.67;3.33;;;;;;;;;;5012319;28;20512;-69
2021/03/15 01:10:52;;;;;;;6.03;3.97;;;;;;;;;;5012724;28;20918;-69
2021/03/15 01:13:18;;;;;;;6.17;5.00;;;;;;;;;;5011886;28;20452;-69
2021/03/15 01:15:45;;;;;;;8.60;5.00;;;;;;;;;;5013212;28;20426;-69
2021/03/15 01:18:12;;;;;;;6.97;5.70;;;;;;;;;;5015796;28;20783;-69
2021/03/15 01:20:38;;;;;;;7.30;4.40;;;;;;;;;;5016454;28;20460;-69
2021/03/15 01:23:04;;;;;;;6.10;4.70;;;;;;;;;;5015837;28;20463;-69
2021/03/15 01:25:37;;;;;;;6.47;4.50;;;;;;;;;;5016290;28;20409;-69
2021/03/15 01:28:05;;;;;;;7.00;4.17;;;;;;;;;;5013877;28;20770;-69
2021/03/15 01:30:31;;;;;;;10.93;4.77;;;;;;;;;;4996511;28;20427;-69
2021/03/15 01:32:58;;;;;;;5.70;4.20;;;;;;;;;;4998146;28;20424;-69
2021/03/15 01:35:24;;;;;;;6.77;4.30;;;;;;;;;;5015623;28;20520;-69
2021/03/15 01:37:51;;;;;;;12.40;5.10;;;;;;;;;;5015244;28;20402;-69
2021/03/15 01:40:17;;;;;;;5.00;4.50;;;;;;;;;;5016140;28;20965;-69
2021/03/15 01:42:44;;;;;;;5.90;4.90;;;;;;;;;;5016272;28;20854;-69
2021/03/15 01:45:10;;;;;;;4.77;4.30;;;;;;;;;;5014989;28;20438;-69
2021/03/15 01:47:37;;;;;;;6.40;5.23;;;;;;;;;;5013855;28;20443;-69
2021/03/15 01:50:04;;;;;;;5.17;4.13;;;;;;;;;;5014815;28;20527;-69
2021/03/15 01:52:31;;;;;;;9.03;4.77;;;;;;;;;;5016110;28;20717;-69
2021/03/15 01:54:57;;;;;;;7.13;4.10;;;;;;;;;;5015058;28;20434;-69
2021/03/15 01:57:23;;;;;;;7.10;5.07;;;;;;;;;;5015798;28;20401;-69
2021/03/15 01:59:49;;;;;;;6.50;4.37;;;;;;;;;;5014806;28;20426;-69
2021/03/15 02:02:15;;;;;;;6.63;4.73;;;;;;;;;;5015885;28;20400;-69
2021/03/15 02:04:41;;;;;;;8.87;5.00;;;;;;;;;;5014863;28;20427;-69
2021/03/15 02:07:07;;;;;;;6.07;4.57;;;;;;;;;;5015647;28;20393;-69
2021/03/15 02:09:33;;;;;;;6.10;4.40;;;;;;;;;;5014651;28;20925;-69
2021/03/15 02:12:17;;;;;;;5.70;4.63;;;;;;;;;;5015411;28;20910;-69
2021/03/15 02:14:43;;;;;;;6.90;5.20;;;;;;;;;;5013899;28;20458;-69
2021/03/15 02:17:19;;;;;;;7.33;4.17;;;;;;;;;;5015749;28;20403;-69
2021/03/15 02:19:56;;;;;;;7.70;4.80;;;;;;;;;;5014614;28;20461;-69
2021/03/15 02:22:22;;;;;;;7.13;4.40;;;;;;;;;;5014600;28;20453;-69
2021/03/15 02:25:03;;;;;;;6.67;4.47;;;;;;;;;;5014633;28;20417;-69
2021/03/15 02:27:41;;;;;;;7.07;4.27;;;;;;;;;;5013726;28;20388;-69
2021/03/15 02:30:17;;;;;;;7.97;5.27;;;;;;;;;;5014516;28;20565;-69
2021/03/15 02:33:01;;;;;;;9.63;5.10;;;;;;;;;;5015187;28;20433;-69
2021/03/15 02:35:31;;;;;;;12.97;5.83;;;;;;;;;;5014358;28;20421;-69
2021/03/15 02:38:04;;;;;;;11.57;4.90;;;;;;;;;;5015495;28;20494;-69
2021/03/15 02:40:34;;;;;;;6.60;4.67;;;;;;;;;;5028641;23;20486;-72
2021/03/15 02:43:02;;;;;;;9.37;5.70;;;;;;;;;;5015397;28;20446;-73
2021/03/15 02:45:29;;;;;;;7.90;4.83;;;;;;;;;;5014232;28;20441;-73
2021/03/15 02:47:56;;;;;;;6.93;5.37;;;;;;;;;;5015281;28;20402;-73
2021/03/15 02:50:23;;;;;;;7.90;5.27;;;;;;;;;;5014289;28;20460;-73
2021/03/15 02:52:50;;;;;;;7.43;5.13;;;;;;;;;;5015166;28;20412;-73
2021/03/15 02:55:18;;;;;;;7.07;5.30;;;;;;;;;;5014075;28;21022;-71
2021/03/15 02:57:45;;;;;;;6.90;4.73;;;;;;;;;;5015601;28;20460;-73
2021/03/15 03:00:11;;;;;;;6.90;5.37;;;;;;;;;;5012771;28;20437;-73
2021/03/15 03:02:41;;;;;;;6.30;4.27;;;;;;;;;;5014233;28;20473;-73
2021/03/15 03:05:08;;;;;;;7.27;5.27;;;;;;;;;;5014266;28;20526;-73
2021/03/15 03:07:37;;;;;;;7.97;5.57;;;;;;;;;;5014953;28;20819;-73
2021/03/15 03:10:04;;;;;;;7.87;4.00;;;;;;;;;;5013752;28;20830;-72
2021/03/15 03:12:30;;;;;;;6.57;4.77;;;;;;;;;;5014878;28;20769;-72
2021/03/15 03:14:58;;;;;;;6.90;4.23;;;;;;;;;;5014209;28;20918;-73
2021/03/15 03:17:25;;;;;;;5.63;4.60;;;;;;;;;;5015265;28;20754;-72
2021/03/15 03:19:52;;;;;;;7.73;4.53;;;;;;;;;;5014281;28;20425;-72
2021/03/15 03:22:18;;;;;;;7.50;4.03;;;;;;;;;;5014880;28;20521;-73
2021/03/15 03:24:45;;;;;;;7.10;5.17;;;;;;;;;;5013853;28;20934;-72
2021/03/15 03:27:12;;;;;;;4.37;3.70;;;;;;;;;;5014860;28;20413;-72
2021/03/15 03:29:39;;;;;;;6.43;4.40;;;;;;;;;;5013401;28;20947;-72
2021/03/15 03:32:05;;;;;;;4.40;3.50;;;;;;;;;;5014618;28;20428;-73
2021/03/15 03:34:31;;;;;;;4.50;4.03;;;;;;;;;;5013582;28;20470;-72
2021/03/15 03:36:57;;;;;;;5.33;3.70;;;;;;;;;;5013346;28;20512;-73
2021/03/15 03:39:23;;;;;;;5.30;4.13;;;;;;;;;;5013985;28;20460;-73
2021/03/15 03:41:49;;;;;;;5.40;3.87;;;;;;;;;;5013305;28;20905;-73
2021/03/15 03:44:15;;;;;;;5.00;3.43;;;;;;;;;;5014111;28;20460;-73
2021/03/15 03:46:42;;;;;;;4.03;3.37;;;;;;;;;;5013439;28;20565;-73
2021/03/15 03:49:09;;;;;;;7.77;4.17;;;;;;;;;;5014231;28;20922;-73
2021/03/15 03:51:42;;;;;;;7.37;3.80;;;;;;;;;;5013067;28;20547;-73
2021/03/15 03:54:19;;;;;;;5.77;4.17;;;;;;;;;;5014440;28;20788;-73
2021/03/15 03:56:51;;;;;;;4.33;3.80;;;;;;;;;;5012597;28;20467;-73
2021/03/15 03:59:19;;;;;;;5.00;3.43;;;;;;;;;;5014251;28;20459;-72
2021/03/15 04:01:47;;;;;;;5.53;3.10;;;;;;;;;;5012705;28;20457;-72
2021/03/15 04:04:16;;;;;;;5.80;3.83;;;;;;;;;;5013872;28;20448;-72
2021/03/15 04:06:42;;;;;;;5.00;3.30;;;;;;;;;;5012813;28;20424;-72
2021/03/15 04:09:13;;;;;;;5.30;3.70;;;;;;;;;;5012856;28;20435;-73
2021/03/15 04:11:42;;;;;;;5.50;4.10;;;;;;;;;;5012833;28;20447;-72
2021/03/15 04:14:08;;;;;;;4.20;3.20;;;;;;;;;;5012532;28;20426;-72
2021/03/15 04:16:35;;;;;;;6.20;3.90;;;;;;;;;;5012782;28;20433;-72
2021/03/15 04:19:03;;;;;;;10.33;4.73;;;;;;;;;;5013964;28;20418;-72
2021/03/15 04:21:31;;;;;;;5.33;4.20;;;;;;;;;;5027919;28;20461;-72
2021/03/15 04:23:57;;;;;;;5.50;4.40;;;;;;;;;;5013591;28;20452;-72
2021/03/15 04:26:24;;;;;;;5.03;3.20;;;;;;;;;;5012488;28;20465;-73
2021/03/15 04:28:51;;;;;;;6.43;3.83;;;;;;;;;;5013830;28;20413;-72
2021/03/15 04:31:17;;;;;;;7.20;4.47;;;;;;;;;;5012620;28;20449;-72
2021/03/15 04:33:44;;;;;;;3.63;3.13;;;;;;;;;;5011920;28;21029;-72
2021/03/15 04:36:12;;;;;;;4.30;3.73;;;;;;;;;;5012524;28;20491;-72
2021/03/15 04:38:38;;;;;;;5.90;3.67;;;;;;;;;;5013819;28;20409;-72
2021/03/15 04:41:04;;;;;;;7.60;3.87;;;;;;;;;;5012571;28;20475;-72
2021/03/15 04:43:31;;;;;;;4.20;3.50;;;;;;;;;;5012387;28;20494;-72
2021/03/15 04:45:58;;;;;;;5.23;3.40;;;;;;;;;;5012279;28;20923;-72
2021/03/15 04:48:25;;;;;;;6.17;3.70;;;;;;;;;;5013502;28;20466;-72
2021/03/15 04:50:57;;;;;;;8.10;3.90;;;;;;;;;;5014171;28;20443;-72
2021/03/15 04:53:23;;;;;;;6.63;3.70;;;;;;;;;;5017397;28;20397;-72
2021/03/15 04:55:49;;;;;;;5.40;3.77;;;;;;;;;;5016583;28;20428;-72
2021/03/15 04:58:17;;;;;;;5.50;4.17;;;;;;;;;;5017648;28;20422;-72
2021/03/15 05:00:44;;;;;;;5.57;3.63;;;;;;;;;;5016274;28;20463;-72
2021/03/15 05:03:13;;;;;;;5.37;4.10;;;;;;;;;;5017358;28;20451;-72
2021/03/15 05:05:39;;;;;;;5.40;3.97;;;;;;;;;;5016568;28;20458;-72
2021/03/15 05:08:07;;;;;;;5.87;3.67;;;;;;;;;;5017430;28;20423;-73
2021/03/15 05:10:34;;;;;;;5.17;3.77;;;;;;;;;;5014104;28;20897;-72
2021/03/15 05:13:00;;;;;;;5.67;3.73;;;;;;;;;;5015988;28;20443;-72
2021/03/15 05:15:26;;;;;;;5.43;3.97;;;;;;;;;;5016328;28;20796;-72
2021/03/15 05:17:54;;;;;;;4.90;3.60;;;;;;;;;;5015934;28;20433;-73
2021/03/15 05:20:20;;;;;;;4.10;3.70;;;;;;;;;;5015944;28;20465;-72
2021/03/15 05:22:47;;;;;;;4.97;3.10;;;;;;;;;;5016830;28;20490;-72
2021/03/15 05:25:13;;;;;;;5.57;3.60;;;;;;;;;;5016120;28;20534;-72
2021/03/15 05:27:43;;;;;;;5.67;3.90;;;;;;;;;;5015056;28;20817;-72
2021/03/15 05:30:11;;;;;;;5.50;3.70;;;;;;;;;;5015862;28;20857;-72
2021/03/15 05:32:40;;;;;;;5.90;3.83;;;;;;;;;;5015069;28;20767;-72
2021/03/15 05:35:10;;;;;;;4.23;3.83;;;;;;;;;;5016882;28;20403;-72
2021/03/15 05:37:36;;;;;;;4.40;3.37;;;;;;;;;;5016712;28;20424;-72
2021/03/15 05:40:05;;;;;;;8.47;4.47;;;;;;;;;;5016925;28;20414;-72
2021/03/15 05:42:42;;;;;;;4.27;3.63;;;;;;;;;;5014950;28;20939;-71
2021/03/15 05:45:10;;;;;;;5.07;3.67;;;;;;;;;;5015380;28;20439;-71
2021/03/15 05:47:55;;;;;;;5.83;3.80;;;;;;;;;;5015446;28;20463;-72
2021/03/15 05:50:30;;;;;;;5.43;3.57;;;;;;;;;;5016619;28;20464;-72
2021/03/15 05:53:02;;;;;;;6.00;3.73;;;;;;;;;;5015597;28;20437;-72
2021/03/15 05:55:34;;;;;;;11.20;4.30;;;;;;;;;;5016314;28;20971;-72
2021/03/15 05:58:08;;;;;;;4.83;3.60;;;;;;;;;;5015618;28;20436;-71
2021/03/15 06:00:49;;;;;;;6.83;3.57;;;;;;;;;;5016425;28;20425;-71
2021/03/15 06:03:33;;;;;;;6.60;3.97;;;;;;;;;;5015398;28;20870;-73
2021/03/15 06:06:02;;;;;;;9.40;3.73;;;;;;;;;;5015799;28;20459;-72
2021/03/15 06:08:31;;;;;;;5.70;3.33;;;;;;;;;;5016472;28;20399;-73
2021/03/15 06:11:16;;;;;;;6.13;3.90;;;;;;;;;;5015869;28;20954;-73
2021/03/15 06:13:43;;;;;;;6.23;4.00;;;;;;;;;;4996759;28;20486;-72
2021/03/15 06:16:10;;;;;;;8.93;4.80;;;;;;;;;;4997531;28;20402;-73
2021/03/15 06:18:36;;;;;;;5.20;4.20;;;;;;;;;;5016454;28;20415;-71
2021/03/15 06:21:02;;;;;;;5.63;3.90;;;;;;;;;;5015765;28;20490;-71
2021/03/15 06:23:29;;;;;;;6.43;4.30;;;;;;;;;;5016612;28;20469;-73
2021/03/15 06:25:56;;;;;;;9.73;3.40;;;;;;;;;;5016851;28;20504;-73
2021/03/15 06:28:23;;;;;;;4.40;3.87;;;;;;;;;;5014817;28;20523;-74
2021/03/15 06:30:51;;;;;;;3.80;3.20;;;;;;;;;;5014436;28;20809;-73
2021/03/15 06:33:17;;;;;;;9.73;4.67;;;;;;;;;;5013335;28;20423;-71
2021/03/15 06:35:48;;;;;;;4.10;2.70;;;;;;;;;;5015771;28;20941;-74
2021/03/15 06:38:16;;;;;;;5.50;3.60;;;;;;;;;;5014475;28;20417;-69
2021/03/15 06:40:43;;;;;;;6.60;3.23;;;;;;;;;;5015332;28;20459;-71
2021/03/15 06:43:14;;;;;;;4.33;3.33;;;;;;;;;;5013358;28;20600;-71
2021/03/15 06:45:42;;;;;;;4.00;3.60;;;;;;;;;;5016119;28;20512;-70
2021/03/15 06:48:09;;;;;;;4.97;3.23;;;;;;;;;;5013963;28;20420;-71
2021/03/15 06:50:35;;;;;;;3.63;2.90;;;;;;;;;;5012340;28;20464;-71
2021/03/15 06:53:03;;;;;;;5.53;3.33;;;;;;;;;;5013843;28;20429;-70
2021/03/15 06:55:29;;;;;;;4.40;3.50;;;;;;;;;;5014976;28;20514;-69
2021/03/15 06:57:55;;;;;;;3.67;2.73;;;;;;;;;;5012484;28;20440;-70
2021/03/15 07:00:22;;;;;;;4.50;3.10;;;;;;;;;;5013710;28;20901;-70
2021/03/15 07:03:01;;;;;;;3.10;2.47;;;;;;;;;;5014243;28;20539;-70
2021/03/15 07:05:28;;;;;;;4.20;2.50;;;;;;;;;;5015599;28;20453;-68
2021/03/15 07:07:56;;;;;;;3.70;2.63;;;;;;;;;;5011906;28;20431;-69
2021/03/15 07:10:29;;;;;;;4.47;2.43;;;;;;;;;;5012915;28;20466;-69
2021/03/15 07:13:15;;;;;;;3.53;2.20;;;;;;;;;;5012179;28;20425;-68
2021/03/15 07:15:42;;;;;;;5.50;3.00;;;;;;;;;;5007304;28;20424;-68
2021/03/15 07:18:18;;;;;;;2.30;2.10;;;;;;;;;;5012863;28;20437;-67
2021/03/15 07:20:55;;;;;;;7.33;2.80;;;;;;;;;;5015096;28;20457;-68
2021/03/15 07:23:39;;;;;;;4.10;2.83;;;;;;;;;;5012560;28;20456;-69
2021/03/15 07:26:15;;;;;;;5.20;2.07;;;;;;;;;;5014169;28;20177;-68
2021/03/15 07:28:42;;;;;;;3.13;2.33;;;;;;;;;;5012969;28;20422;-68
2021/03/15 07:31:23;;;;;;;7.27;3.00;;;;;;;;;;5014121;28;20440;-68
2021/03/15 07:33:55;;;;;;;4.60;2.38;;;;;;;;;;5011745;28;20430;-69
2021/03/15 07:36:21;;;;;;;3.10;2.10;;;;;;;;;;5003771;28;20419;-72
2021/03/15 07:38:48;;;;;;;7.73;2.47;;;;;;;;;;5006162;28;20191;-72
2021/03/15 07:41:15;;;;;;;3.30;2.10;;;;;;;;;;5007364;28;20788;-68
2021/03/15 07:43:41;;;;;;;3.30;2.27;;;;;;;;;;5010206;28;20694;-68
2021/03/15 07:46:23;;;;;;;3.77;2.20;;;;;;;;;;5013863;28;20430;-68
2021/03/15 07:48:50;;;;;;;3.93;2.30;;;;;;;;;;5013527;28;20463;-72
2021/03/15 07:51:30;;;;;;;2.20;1.90;;;;;;;;;;5012894;28;20458;-74
2021/03/15 07:54:07;;;;;;;3.90;2.20;;;;;;;;;;5028170;28;20501;-70
2021/03/15 07:56:33;;;;;;;3.45;2.08;;;;;;;;;;5009250;28;20993;-69
2021/03/15 07:58:59;;;;;;;3.73;2.10;;;;;;;;;;5007709;28;20483;-69
2021/03/15 08:01:25;;;;;;;4.70;2.03;;;;;;;;;;5004369;28;20459;-70
2021/03/15 08:03:52;;;;;;;2.80;2.10;;;;;;;;;;5004905;28;20473;-70
2021/03/15 08:06:18;;;;;;;2.50;1.90;;;;;;;;;;5010075;28;20918;-69
2021/03/15 08:08:44;;;;;;;2.10;1.40;;;;;;;;;;5004556;28;20458;-70
2021/03/15 08:11:14;;;;;;;2.63;1.80;;;;;;;;;;5003313;28;20451;-70
2021/03/15 08:13:43;;;;;;;4.20;2.87;;;;;;;;;;4996851;28;20437;-70
2021/03/15 08:16:12;;;;;;;6.10;2.07;;;;;;;;;;5001387;28;20472;-69
2021/03/15 08:18:39;;;;;;;4.37;2.30;;;;;;;;;;5008851;28;20439;-70
2021/03/15 08:21:06;;;;;;;3.43;1.90;;;;;;;;;;5008501;28;21076;-70
2021/03/15 08:23:33;;;;;;;4.50;2.13;;;;;;;;;;5011327;28;20524;-70
2021/03/15 08:26:06;;;;;;;3.47;2.17;;;;;;;;;;5011139;28;20912;-70
2021/03/15 08:28:33;;;;;;;5.60;1.80;;;;;;;;;;5003069;28;20448;-69
2021/03/15 08:31:03;;;;;;;2.90;2.40;;;;;;;;;;5016077;28;20448;-70
2021/03/15 08:33:29;;;;;;;2.57;2.00;;;;;;;;;;5013560;28;20421;-69
2021/03/15 08:35:56;;;;;;;3.80;2.10;;;;;;;;;;5001533;28;20433;-70
2021/03/15 08:38:32;;;;;;;3.33;1.90;;;;;;;;;;5006965;28;20998;-70
2021/03/15 08:40:59;;;;;;;4.60;2.40;;;;;;;;;;5010938;28;20463;-72
2021/03/15 08:43:26;;;;;;;3.63;2.07;;;;;;;;;;5007781;28;20472;-71
2021/03/15 08:45:52;;;;;;;4.07;2.17;;;;;;;;;;5010146;28;20512;-71
2021/03/15 08:48:20;;;;;;;9.03;2.20;;;;;;;;;;5005322;28;20529;-69
2021/03/15 08:50:49;;;;;;;3.67;2.30;;;;;;;;;;5022216;28;20442;-69
2021/03/15 08:53:33;;;;;;;2.57;1.90;;;;;;;;;;5009808;28;20430;-70
2021/03/15 08:55:59;;;;;;;4.00;2.30;;;;;;;;;;5006705;28;20463;-71
2021/03/15 08:58:37;;;;;;;3.10;2.13;;;;;;;;;;5011503;28;20423;-70
2021/03/15 09:01:04;;;;;;;5.37;2.37;;;;;;;;;;5008592;28;20453;-70
2021/03/15 09:03:48;;;;;;;3.70;1.77;;;;;;;;;;5006019;28;20555;-74
2021/03/15 09:06:16;;;;;;;2.40;2.00;;;;;;;;;;5009784;28;20505;-71
2021/03/15 09:09:11;;;;;;;3.20;2.20;;;;;;;;;;5009837;28;20418;-69
2021/03/15 09:11:37;;;;;;;4.77;1.83;;;;;;;;;;5000933;28;20446;-71
2021/03/15 09:16:46;;;;;;;2.60;1.70;;;;;;;;;;5011998;28;20429;-68
2021/03/15 09:19:19;;;;;;;2.97;1.90;;;;;;;;;;5010117;28;20439;-71
2021/03/15 09:21:46;;;;;;;4.20;1.70;;;;;;;;;;5008099;28;20960;-70
2021/03/15 09:24:35;;;;;;;2.87;1.57;;;;;;;;;;5010515;28;20461;-69
2021/03/15 09:27:06;;;;;;;2.47;1.57;;;;;;;;;;5003991;28;20429;-71
2021/03/15 09:29:34;;;;;;;2.90;2.10;;;;;;;;;;5011210;28;20461;-68
2021/03/15 09:32:00;;;;;;;2.10;1.83;;;;;;;;;;5007475;28;20506;-68
2021/03/15 09:34:27;;;;;;;2.57;1.33;;;;;;;;;;5005792;28;20527;-68
2021/03/15 09:36:55;;;;;;;2.20;1.25;;;;;;;;;;5009632;28;20497;-69
2021/03/15 09:39:22;;;;;;;3.50;1.80;;;;;;;;;;5012995;28;20622;-72
2021/03/15 09:41:48;;;;;;;2.30;1.73;;;;;;;;;;5014925;28;20444;-71
2021/03/15 09:44:14;;;;;;;1.97;1.40;;;;;;;;;;5011339;28;20468;-71
2021/03/15 09:46:40;;;;;;;8.73;2.00;;;;;;;;;;5011645;28;20422;-71
2021/03/15 09:49:06;;;;;;;2.23;1.50;;;;;;;;;;5011908;28;20487;-72
2021/03/15 09:51:32;;;;;;;3.30;2.00;;;;;;;;;;5014651;28;20479;-70
2021/03/15 09:53:58;;;;;;;2.73;1.53;;;;;;;;;;5014817;28;20412;-69
2021/03/15 09:56:25;;;;;;;2.63;1.83;;;;;;;;;;5012247;28;20503;-67
2021/03/15 09:58:51;;;;;;;2.80;1.67;;;;;;;;;;5014011;28;20427;-68
2021/03/15 10:01:21;;;;;;;3.30;2.10;;;;;;;;;;5008476;28;20432;-69
2021/03/15 10:03:52;;;;;;;2.27;1.77;;;;;;;;;;5013605;28;20339;-70
2021/03/15 10:06:21;;;;;;;2.00;1.70;;;;;;;;;;5012124;28;20426;-71
2021/03/15 10:08:51;;;;;;;2.80;1.33;;;;;;;;;;5014497;28;20412;-71
2021/03/15 10:11:17;;;;;;;2.97;1.40;;;;;;;;;;5014328;28;20593;-72
2021/03/15 10:13:43;;;;;;;2.40;2.00;;;;;;;;;;5009253;28;20426;-72
2021/03/15 10:16:09;;;;;;;2.10;1.20;;;;;;;;;;5011271;28;20530;-71
2021/03/15 10:18:35;;;;;;;2.47;1.50;;;;;;;;;;5013635;28;20837;-69
2021/03/15 10:21:01;;;;;;;1.53;1.03;;;;;;;;;;5011994;28;20522;-70
2021/03/15 10:23:33;;;;;;;1.97;1.20;;;;;;;;;;5011743;28;20462;-71
2021/03/15 10:26:01;;;;;;;2.50;1.47;;;;;;;;;;5008927;28;20770;-70
2021/03/15 10:28:28;;;;;;;3.13;1.50;;;;;;;;;;5013456;28;20416;-71
2021/03/15 10:30:54;;;;;;;1.73;1.13;;;;;;;;;;5012501;28;20491;-69
2021/03/15 10:33:21;;;;;;;1.60;1.03;;;;;;;;;;5012847;28;20424;-69
2021/03/15 10:35:48;;;;;;;1.63;1.00;;;;;;;;;;5009653;28;20421;-67
2021/03/15 10:38:14;;;;;;;1.60;0.90;;;;;;;;;;5012605;28;20512;-67
2021/03/15 10:40:40;;;;;;;1.73;1.27;;;;;;;;;;5012713;28;20838;-70
2021/03/15 10:43:07;;;;;;;1.90;1.30;;;;;;;;;;5011493;28;20503;-68
2021/03/15 10:45:33;;;;;;;2.00;1.20;;;;;;;;;;5010730;28;20801;-72
2021/03/15 10:48:03;;;;;;;1.30;0.90;;;;;;;;;;5012035;28;20423;-69
2021/03/15 10:50:31;;;;;;;1.60;1.03;;;;;;;;;;5010086;28;20457;-69
2021/03/15 10:52:57;;;;;;;1.60;1.10;;;;;;;;;;5010411;28;20433;-70
2021/03/15 10:55:24;;;;;;;3.73;1.50;;;;;;;;;;5010390;28;20453;-68
2021/03/15 10:58:10;;;;;;;2.83;1.13;;;;;;;;;;5012068;28;20473;-69
2021/03/15 11:00:41;;;;;;;1.83;1.10;;;;;;;;;;5007713;28;20450;-69
2021/03/15 11:03:07;;;;;;;2.53;1.15;;;;;;;;;;5002962;28;20446;-70
2021/03/15 11:05:33;;;;;;;1.60;1.10;;;;;;;;;;5009394;28;20191;-69
2021/03/15 11:08:00;;;;;;;1.43;1.00;;;;;;;;;;5012861;28;21125;-72
2021/03/15 11:10:28;;;;;;;2.00;1.10;;;;;;;;;;5013769;28;20860;-70
2021/03/15 11:12:54;;;;;;;2.03;1.10;;;;;;;;;;5012156;28;20416;-70
2021/03/15 11:15:33;;;;;;;2.00;1.20;;;;;;;;;;5010222;28;20943;-70
2021/03/15 11:18:04;;;;;;;1.50;1.00;;;;;;;;;;5013313;28;20416;-70
2021/03/15 11:20:40;;;;;;;2.30;1.37;;;;;;;;;;5010263;28;20980;-70
2021/03/15 11:23:06;;;;;;;2.20;1.40;;;;;;;;;;5004876;28;20453;-70
2021/03/15 11:25:33;;;;;;;1.67;1.00;;;;;;;;;;5008104;28;20481;-69
2021/03/15 11:28:03;;;;;;;2.23;1.27;;;;;;;;;;5013205;28;20482;-69
2021/03/15 11:30:29;;;;;;;1.90;1.30;;;;;;;;;;5011288;28;20454;-69
2021/03/15 11:32:59;;;;;;;1.43;0.97;;;;;;;;;;5008281;28;20473;-69
2021/03/15 11:35:25;;;;;;;1.77;1.00;;;;;;;;;;5012181;28;20515;-70
2021/03/15 11:37:52;;;;;;;1.80;1.07;;;;;;;;;;5012005;28;20428;-70
2021/03/15 11:40:27;;;;;;;1.40;0.90;;;;;;;;;;5007633;28;20429;-70
2021/03/15 11:42:54;;;;;;;1.60;0.83;;;;;;;;;;5013299;28;20467;-70
2021/03/15 11:45:20;;;;;;;1.60;0.97;;;;;;;;;;5011735;28;20433;-70
2021/03/15 11:47:47;;;;;;;4.43;1.00;;;;;;;;;;5005618;28;20944;-70
2021/03/15 11:50:13;;;;;;;1.43;0.93;;;;;;;;;;5002983;28;20437;-70
2021/03/15 11:52:41;;;;;;;2.00;1.10;;;;;;;;;;5009697;28;20436;-69
2021/03/15 11:55:08;;;;;;;1.40;0.90;;;;;;;;;;5006996;28;20485;-69
2021/03/15 11:57:34;;;;;;;1.70;1.00;;;;;;;;;;5007220;28;20438;-75
2021/03/15 12:00:00;;;;;;;1.43;0.97;;;;;;;;;;5013998;28;20915;-76
2021/03/15 12:02:26;;;;;;;1.97;1.17;;;;;;;;;;5027615;28;20416;-75
2021/03/15 12:04:53;;;;;;;1.83;1.00;;;;;;;;;;5015597;28;20553;-72
2021/03/15 12:07:19;;;;;;;1.40;0.80;;;;;;;;;;5008971;28;20441;-73
2021/03/15 12:09:45;;;;;;;2.17;1.10;;;;;;;;;;5006604;28;20258;-74
2021/03/15 12:12:11;;;;;;;1.60;1.10;;;;;;;;;;5011337;28;20448;-70
2021/03/15 12:14:37;;;;;;;1.50;1.00;;;;;;;;;;5005903;28;20835;-69
2021/03/15 12:17:03;;;;;;;2.00;1.27;;;;;;;;;;5004156;28;20777;-70
2021/03/15 12:19:29;;;;;;;1.80;1.20;;;;;;;;;;5012730;28;20417;-69
2021/03/15 12:21:55;;;;;;;2.37;1.37;;;;;;;;;;5010505;28;21046;-69
2021/03/15 12:24:21;;;;;;;1.93;1.13;;;;;;;;;;5012415;28;20551;-72
2021/03/15 12:26:47;;;;;;;2.27;1.00;;;;;;;;;;5011787;28;20503;-73
2021/03/15 12:29:13;;;;;;;1.60;1.13;;;;;;;;;;5011929;28;20444;-73
2021/03/15 12:31:40;;;;;;;2.00;1.17;;;;;;;;;;5008760;28;20452;-73
2021/03/15 12:34:06;;;;;;;1.70;1.10;;;;;;;;;;5027275;28;20465;-74
2021/03/15 12:36:32;;;;;;;1.70;1.30;;;;;;;;;;5010928;28;20430;-74
2021/03/15 12:38:58;;;;;;;1.97;1.40;;;;;;;;;;5010087;28;20503;-74
2021/03/15 12:41:24;;;;;;;1.90;1.30;;;;;;;;;;5011042;28;20465;-72
2021/03/15 12:43:50;;;;;;;2.20;1.47;;;;;;;;;;5009786;28;20532;-73
2021/03/15 12:46:19;;;;;;;2.00;1.13;;;;;;;;;;5011269;28;20519;-73
2021/03/15 12:48:46;;;;;;;2.13;1.20;;;;;;;;;;5011019;28;20555;-74
2021/03/15 12:51:12;;;;;;;1.80;1.37;;;;;;;;;;5010797;28;20952;-74
2021/03/15 12:53:38;;;;;;;3.03;1.10;;;;;;;;;;5010855;28;20425;-74
2021/03/15 12:56:05;;;;;;;2.00;1.37;;;;;;;;;;5006848;28;20460;-74
2021/03/15 12:58:31;;;;;;;1.50;1.03;;;;;;;;;;5009725;28;20454;-74
2021/03/15 13:00:57;;;;;;;2.90;1.73;;;;;;;;;;5006457;28;20455;-70
2021/03/15 13:03:23;;;;;;;2.00;1.70;;;;;;;;;;5009441;28;20460;-70
2021/03/15 13:05:49;;;;;;;2.90;1.15;;;;;;;;;;5006791;28;20427;-69
2021/03/15 13:08:15;;;;;;;2.13;1.67;;;;;;;;;;5011015;28;20174;-70
2021/03/15 13:10:41;;;;;;;2.63;1.50;;;;;;;;;;5025758;28;20434;-70
2021/03/15 13:13:07;;;;;;;2.10;1.60;;;;;;;;;;5010036;28;20182;-72
2021/03/15 13:15:34;;;;;;;2.30;1.30;;;;;;;;;;5009467;28;20432;-71
2021/03/15 13:18:00;;;;;;;2.50;1.80;;;;;;;;;;5016426;28;20201;-73
2021/03/15 13:20:26;;;;;;;2.50;1.60;;;;;;;;;;5014529;28;20441;-73
2021/03/15 13:22:52;;;;;;;2.00;1.20;;;;;;;;;;5011232;28;20433;-72
2021/03/15 13:25:19;;;;;;;2.60;1.80;;;;;;;;;;5010798;28;20834;-72
2021/03/15 13:27:45;;;;;;;3.93;1.50;;;;;;;;;;5014895;28;20930;-70
2021/03/15 13:30:11;;;;;;;1.77;1.47;;;;;;;;;;5010523;28;20425;-68
2021/03/15 13:32:38;;;;;;;2.20;1.73;;;;;;;;;;5014062;28;20947;-74
2021/03/15 13:35:04;;;;;;;4.23;1.70;;;;;;;;;;5021098;28;20448;-74
2021/03/15 13:37:30;;;;;;;2.20;1.77;;;;;;;;;;5013781;28;20960;-74
2021/03/15 13:39:56;;;;;;;2.20;1.47;;;;;;;;;;5014739;28;20909;-75
2021/03/15 13:42:23;;;;;;;2.13;1.43;;;;;;;;;;5009072;28;20468;-75
2021/03/15 13:44:51;;;;;;;2.30;1.60;;;;;;;;;;5011045;28;20457;-74
2021/03/15 13:47:17;;;;;;;2.47;1.70;;;;;;;;;;5011374;28;20897;-74
2021/03/15 13:49:44;;;;;;;4.90;1.90;;;;;;;;;;5011236;28;20449;-76
2021/03/15 13:52:10;;;;;;;3.53;1.70;;;;;;;;;;5010920;28;20454;-76
2021/03/15 13:54:36;;;;;;;3.50;1.70;;;;;;;;;;5010524;28;20521;-76
2021/03/15 13:57:02;;;;;;;2.50;1.77;;;;;;;;;;5009948;28;20430;-76
2021/03/15 13:59:29;;;;;;;2.17;1.47;;;;;;;;;;5003300;28;20434;-76
2021/03/15 14:01:55;;;;;;;1.87;1.50;;;;;;;;;;5012334;28;20441;-76
2021/03/15 14:04:21;;;;;;;1.77;1.27;;;;;;;;;;5011335;28;20509;-76
2021/03/15 14:06:49;;;;;;;1.90;1.40;;;;;;;;;;5005256;28;20787;-76
2021/03/15 14:09:15;;;;;;;2.37;1.60;;;;;;;;;;5010214;28;20424;-76
2021/03/15 14:11:41;;;;;;;2.13;1.30;;;;;;;;;;5013297;28;20469;-76
2021/03/15 14:14:07;;;;;;;2.30;1.60;;;;;;;;;;5004682;28;20442;-75
2021/03/15 14:16:33;;;;;;;1.47;1.10;;;;;;;;;;5008402;28;20436;-75
2021/03/15 14:18:59;;;;;;;2.33;1.37;;;;;;;;;;5007560;28;20462;-76
2021/03/15 14:21:25;;;;;;;1.60;1.20;;;;;;;;;;5014658;28;20453;-73
2021/03/15 14:23:51;;;;;;;2.17;1.53;;;;;;;;;;5005953;28;20483;-73
2021/03/15 14:26:18;;;;;;;2.80;1.70;;;;;;;;;;5006455;28;20438;-73
2021/03/15 14:28:44;;;;;;;1.73;1.33;;;;;;;;;;5007664;28;20432;-72
2021/03/15 14:31:11;;;;;;;1.93;1.40;;;;;;;;;;5005309;28;20542;-70
2021/03/15 14:33:37;;;;;;;2.13;1.60;;;;;;;;;;5001279;28;20444;-71
2021/03/15 14:36:04;;;;;;;2.77;2.40;;;;;;;;;;5004402;28;20465;-72
2021/03/15 14:38:30;;;;;;;2.93;1.40;;;;;;;;;;5006449;28;20484;-73
2021/03/15 14:40:56;;;;;;;1.90;1.47;;;;;;;;;;5012398;28;20458;-71
2021/03/15 14:43:22;;;;;;;1.93;1.60;;;;;;;;;;5008945;28;20479;-71
2021/03/15 14:45:52;;;;;;;2.45;1.23;;;;;;;;;;5002362;28;20442;-73
2021/03/15 14:48:20;;;;;;;1.97;1.70;;;;;;;;;;4997326;28;20258;-73
2021/03/15 14:50:46;;;;;;;1.80;1.50;;;;;;;;;;5011904;28;20436;-75